createdAt,value
2023-01-23T00:00:28.155Z,14.01
2023-01-23T00:02:58.664Z,14.06
2023-01-23T00:05:28.680Z,13.94
2023-01-23T00:07:58.099Z,13.91
2023-01-23T00:10:27.703Z,13.73
2023-01-23T00:12:58.921Z,13.72
2023-01-23T00:15:28.538Z,13.79
2023-01-23T00:17:58.189Z,13.88
2023-01-23T00:20:27.860Z,13.88
2023-01-23T00:22:57.208Z,13.90
2023-01-23T00:25:27.274Z,13.84
2023-01-23T00:27:57.197Z,13.86
2023-01-23T00:30:27.260Z,13.85
2023-01-23T00:32:57.138Z,13.82
2023-01-23T00:35:28.556Z,13.92
2023-01-23T00:37:59.143Z,13.80
2023-01-23T00:40:28.737Z,13.84
2023-01-23T00:42:58.125Z,13.66
2023-01-23T00:45:27.591Z,13.68
2023-01-23T00:47:57.015Z,13.57
2023-01-23T00:50:26.424Z,13.60
2023-01-23T00:52:55.782Z,13.59
2023-01-23T00:55:25.895Z,13.58
2023-01-23T00:57:55.616Z,13.64
2023-01-23T01:00:26.172Z,13.67
2023-01-23T01:02:56.691Z,13.60
2023-01-23T01:05:27.233Z,13.51
2023-01-23T01:07:56.923Z,13.51
2023-01-23T01:10:31.485Z,13.35
2023-01-23T01:13:03.843Z,13.60
2023-01-23T01:15:34.671Z,13.49
2023-01-23T01:18:05.348Z,13.30
2023-01-23T01:20:35.233Z,13.53
2023-01-23T01:23:04.980Z,13.53
2023-01-23T01:25:34.785Z,13.49
2023-01-23T01:28:04.656Z,13.46
2023-01-23T01:30:35.279Z,13.47
2023-01-23T01:33:05.969Z,13.61
2023-01-23T01:35:36.232Z,13.53
2023-01-23T01:38:05.981Z,13.58
2023-01-23T01:40:37.420Z,13.55
2023-01-23T01:43:10.726Z,13.59
2023-01-23T01:46:17.182Z,13.48
2023-01-23T01:49:27.424Z,13.59
2023-01-23T01:51:59.962Z,13.43
2023-01-23T01:54:39.003Z,13.54
2023-01-23T01:57:11.935Z,13.44
2023-01-23T01:59:49.404Z,13.55
2023-01-23T02:02:28.182Z,13.59
2023-01-23T02:05:06.089Z,13.48
2023-01-23T02:07:42.137Z,13.61
2023-01-23T02:10:13.931Z,13.48
2023-01-23T02:12:49.764Z,13.56
2023-01-23T02:15:21.184Z,13.51
2023-01-23T02:17:55.960Z,13.57
2023-01-23T02:20:30.619Z,13.48
2023-01-23T02:23:43.369Z,13.68
2023-01-23T02:26:20.806Z,13.61
2023-01-23T02:28:54.434Z,13.58
2023-01-23T02:31:28.600Z,13.49
2023-01-23T02:34:01.699Z,13.56
2023-01-23T02:36:34.897Z,13.53
2023-01-23T02:39:11.260Z,13.52
2023-01-23T02:41:43.815Z,13.56
2023-01-23T02:44:30.166Z,13.62
2023-01-23T02:47:09.045Z,13.46
2023-01-23T02:49:39.367Z,13.53
2023-01-23T02:52:11.015Z,13.39
2023-01-23T02:54:41.895Z,13.41
2023-01-23T02:57:12.584Z,13.47
2023-01-23T03:00:00.388Z,13.43
2023-01-23T03:02:30.854Z,13.47
2023-01-23T03:05:00.390Z,13.45
2023-01-23T03:07:30.694Z,13.47
2023-01-23T03:10:00.239Z,13.56
2023-01-23T03:12:29.871Z,13.59
2023-01-23T03:15:00.940Z,13.40
2023-01-23T03:17:31.488Z,13.55
2023-01-23T03:20:03.145Z,13.53
2023-01-23T03:22:33.133Z,13.56
2023-01-23T03:25:02.743Z,13.64
2023-01-23T03:27:33.449Z,13.70
2023-01-23T03:30:15.268Z,13.75
2023-01-23T03:32:46.470Z,13.92
2023-01-23T03:35:18.299Z,14.08
2023-01-23T03:37:52.023Z,14.16
2023-01-23T03:40:43.634Z,14.20
2023-01-23T03:43:17.424Z,13.87
2023-01-23T03:45:53.099Z,13.90
2023-01-23T03:48:24.111Z,14.13
2023-01-23T03:50:54.756Z,14.20
2023-01-23T03:53:26.296Z,14.34
2023-01-23T03:55:56.237Z,14.35
2023-01-23T03:58:27.240Z,14.17
2023-01-23T04:01:00.159Z,14.28
2023-01-23T04:03:31.157Z,14.21
2023-01-23T04:06:01.853Z,14.35
2023-01-23T04:08:31.770Z,14.49
2023-01-23T04:11:09.923Z,14.26
2023-01-23T04:13:40.679Z,14.25
2023-01-23T04:16:10.670Z,14.31
2023-01-23T04:18:40.460Z,14.10
2023-01-23T04:21:10.960Z,14.28
2023-01-23T04:23:41.636Z,14.33
2023-01-23T04:26:11.934Z,14.31
2023-01-23T04:28:42.628Z,14.20
2023-01-23T04:31:14.203Z,14.31
2023-01-23T04:33:44.201Z,14.48
2023-01-23T04:36:15.187Z,14.47
2023-01-23T04:38:45.540Z,14.58
2023-01-23T04:41:30.325Z,14.66
2023-01-23T04:44:23.584Z,14.70
2023-01-23T04:47:22.135Z,14.72
2023-01-23T04:49:52.728Z,14.75
2023-01-23T04:52:23.075Z,14.68
2023-01-23T04:55:00.120Z,14.87
2023-01-23T04:57:30.249Z,14.99
2023-01-23T05:00:10.498Z,15.04
2023-01-23T05:02:43.346Z,14.64
2023-01-23T05:05:13.765Z,15.06
2023-01-23T05:07:43.962Z,15.23
2023-01-23T05:10:18.197Z,15.33
2023-01-23T05:12:49.157Z,15.47
2023-01-23T05:15:20.474Z,15.37
2023-01-23T05:38:03.233Z,16.45
2023-01-23T05:40:37.572Z,16.52
2023-01-23T05:43:26.994Z,16.14
2023-01-23T05:46:14.553Z,16.37
2023-01-23T05:48:56.027Z,16.39
2023-01-23T05:51:32.400Z,16.23
2023-01-23T05:54:04.104Z,16.61
2023-01-23T05:56:35.714Z,16.74
2023-01-23T05:59:31.141Z,16.74
2023-01-23T06:02:33.923Z,16.75
2023-01-23T06:05:21.496Z,16.86
2023-01-23T06:08:04.940Z,16.49
2023-01-23T06:10:34.695Z,16.84
2023-01-23T06:13:05.821Z,16.88
2023-01-23T06:15:35.996Z,16.67
2023-01-23T06:18:11.439Z,16.95
2023-01-23T06:20:40.860Z,17.01
2023-01-23T06:23:10.330Z,16.91
2023-01-23T06:25:40.512Z,17.34
2023-01-23T06:28:12.446Z,16.92
2023-01-23T06:30:42.108Z,17.30
2023-01-23T06:33:23.434Z,17.16
2023-01-23T06:35:59.666Z,17.51
2023-01-23T06:38:30.353Z,17.32
2023-01-23T06:41:01.599Z,17.32
2023-01-23T06:43:35.316Z,17.65
2023-01-23T06:46:05.796Z,17.44
2023-01-23T06:48:35.029Z,17.47
2023-01-23T06:51:05.106Z,17.57
2023-01-23T06:53:35.311Z,17.93
2023-01-23T06:56:09.024Z,18.04
2023-01-23T06:58:42.847Z,18.22
2023-01-23T07:01:20.420Z,18.21
2023-01-23T07:04:12.793Z,18.12
2023-01-23T07:06:44.166Z,18.30
2023-01-23T07:09:16.293Z,18.42
2023-01-23T07:11:52.697Z,18.05
2023-01-23T07:14:22.533Z,18.21
2023-01-23T07:16:56.730Z,18.20
2023-01-23T07:19:27.944Z,18.33
2023-01-23T07:21:58.546Z,18.39
2023-01-23T07:24:31.066Z,18.39
2023-01-23T07:27:00.615Z,18.31
2023-01-23T07:29:33.069Z,18.39
2023-01-23T07:32:02.308Z,18.45
2023-01-23T07:34:31.025Z,18.33
2023-01-23T07:37:00.771Z,18.56
2023-01-23T07:39:29.906Z,18.64
2023-01-23T07:41:59.531Z,18.69
2023-01-23T07:44:30.818Z,18.34
2023-01-23T07:47:00.507Z,18.50
2023-01-23T07:49:30.063Z,18.73
2023-01-23T07:51:58.937Z,18.82
2023-01-23T07:54:28.350Z,18.74
2023-01-23T07:56:57.959Z,19.04
2023-01-23T07:59:27.711Z,19.11
2023-01-23T08:01:57.124Z,19.05
2023-01-23T08:04:26.371Z,18.76
2023-01-23T08:06:55.803Z,19.06
2023-01-23T08:09:25.550Z,19.17
2023-01-23T08:11:55.114Z,19.31
2023-01-23T08:14:24.885Z,19.28
2023-01-23T08:16:54.977Z,19.31
2023-01-23T08:19:26.489Z,19.22
2023-01-23T08:21:56.019Z,19.46
2023-01-23T08:24:25.259Z,18.98
2023-01-23T08:26:54.625Z,19.35
2023-01-23T08:29:23.995Z,19.50
2023-01-23T08:31:56.120Z,19.58
2023-01-23T08:34:26.177Z,19.29
2023-01-23T08:36:55.490Z,19.41
2023-01-23T08:39:25.740Z,19.41
2023-01-23T08:41:54.835Z,19.46
2023-01-23T08:44:24.901Z,19.44
2023-01-23T08:46:54.147Z,19.45
2023-01-23T08:49:23.369Z,19.39
2023-01-23T08:51:52.702Z,19.39
2023-01-23T08:54:24.823Z,19.55
2023-01-23T08:56:54.674Z,19.54
2023-01-23T08:59:24.027Z,19.63
2023-01-23T09:01:54.544Z,19.58
2023-01-23T09:04:23.668Z,19.46
2023-01-23T09:06:53.204Z,19.50
2023-01-23T09:09:22.575Z,19.70
2023-01-23T09:11:52.403Z,19.30
2023-01-23T09:14:22.251Z,19.69
2023-01-23T09:16:51.430Z,19.69
2023-01-23T09:19:20.571Z,19.58
2023-01-23T09:21:49.785Z,19.73
2023-01-23T09:24:19.106Z,19.83
2023-01-23T09:26:48.173Z,19.76
2023-01-23T09:29:17.687Z,19.55
2023-01-23T09:31:47.045Z,19.80
2023-01-23T09:34:17.382Z,19.63
2023-01-23T09:36:46.861Z,19.38
2023-01-23T09:39:15.747Z,19.69
2023-01-23T09:41:47.765Z,19.85
2023-01-23T09:44:23.716Z,19.82
2023-01-23T09:47:05.949Z,19.86
2023-01-23T09:49:42.599Z,19.65
2023-01-23T09:52:21.742Z,19.87
2023-01-23T09:55:05.869Z,19.74
2023-01-23T09:57:40.850Z,19.69
2023-01-23T10:00:23.233Z,19.64
2023-01-23T10:02:54.572Z,19.64
2023-01-23T10:05:33.984Z,19.71
2023-01-23T10:08:12.555Z,19.67
2023-01-23T10:11:00.996Z,19.83
2023-01-23T10:14:07.232Z,19.73
2023-01-23T10:16:52.362Z,19.75
2023-01-23T10:19:51.628Z,19.69
2023-01-23T10:22:37.028Z,19.70
2023-01-23T10:25:41.813Z,19.76
2023-01-23T10:28:32.165Z,19.53
2023-01-23T10:31:05.551Z,19.47
2023-01-23T10:33:51.053Z,19.55
2023-01-23T10:36:54.713Z,19.63
2023-01-23T10:39:34.476Z,19.43
2023-01-23T10:42:03.708Z,19.41
2023-01-23T10:44:32.641Z,19.34
2023-01-23T10:47:06.190Z,19.30
2023-01-23T10:49:46.459Z,19.38
2023-01-23T10:52:46.230Z,19.63
2023-01-23T10:55:21.348Z,19.64
2023-01-23T10:57:55.084Z,19.44
2023-01-23T11:00:30.793Z,19.23
2023-01-23T11:03:22.518Z,19.39
2023-01-23T11:06:07.991Z,19.31
2023-01-23T11:08:53.041Z,19.35
2023-01-23T11:11:26.123Z,19.07
2023-01-23T11:14:23.851Z,19.03
2023-01-23T11:17:23.723Z,19.07
2023-01-23T11:19:55.479Z,18.90
2023-01-23T11:22:34.405Z,18.92
2023-01-23T11:38:03.136Z,18.45
2023-01-23T11:40:33.135Z,18.46
2023-01-23T11:43:11.654Z,18.44
2023-01-23T11:45:47.480Z,18.35
2023-01-23T11:48:42.636Z,18.34
2023-01-23T11:51:30.930Z,18.19
2023-01-23T11:54:22.429Z,18.25
2023-01-23T11:56:51.928Z,18.06
2023-01-23T11:59:35.411Z,18.09
2023-01-23T12:02:04.781Z,17.96
2023-01-23T12:04:55.036Z,17.98
2023-01-23T12:07:27.888Z,17.92
2023-01-23T12:09:57.106Z,17.83
2023-01-23T12:12:37.676Z,17.84
2023-01-23T12:15:29.150Z,17.80
2023-01-23T12:18:15.622Z,17.75
2023-01-23T12:21:13.385Z,17.60
2023-01-23T12:23:47.309Z,17.29
2023-01-23T12:26:23.516Z,17.42
2023-01-23T12:29:04.260Z,17.45
2023-01-23T12:31:49.196Z,17.41
2023-01-23T12:34:21.140Z,17.19
2023-01-23T12:37:11.759Z,17.17
2023-01-23T12:39:52.930Z,17.17
2023-01-23T12:42:28.286Z,17.04
2023-01-23T12:45:12.584Z,17.01
2023-01-23T12:48:01.670Z,17.11
2023-01-23T12:50:54.853Z,16.92
2023-01-23T12:53:25.157Z,16.79
2023-01-23T12:56:00.592Z,16.80
2023-01-23T12:58:33.377Z,16.73
2023-01-23T13:01:14.955Z,16.71
2023-01-23T13:04:22.478Z,16.80
2023-01-23T13:07:11.127Z,16.66
2023-01-23T13:09:49.760Z,16.75
2023-01-23T13:12:28.650Z,16.65
2023-01-23T13:15:39.128Z,16.70
2023-01-23T13:18:29.086Z,16.65
2023-01-23T13:21:26.837Z,16.55
2023-01-23T13:24:40.995Z,16.58
2023-01-23T13:27:56.440Z,16.58
2023-01-23T13:30:33.445Z,16.38
2023-01-23T13:33:31.656Z,16.55
2023-01-23T13:36:24.826Z,16.49
2023-01-23T13:39:16.382Z,16.41
2023-01-23T13:41:50.443Z,16.36
2023-01-23T13:44:47.754Z,16.41
2023-01-23T14:22:42.083Z,16.04
2023-01-23T14:25:20.362Z,16.12
2023-01-23T14:27:54.279Z,16.02
2023-01-23T14:30:27.561Z,16.13
2023-01-23T14:32:56.816Z,16.19
2023-01-23T14:35:31.900Z,16.05
2023-01-23T14:38:04.517Z,15.95
2023-01-23T14:40:48.949Z,15.95
2023-01-23T14:43:23.160Z,16.01
2023-01-23T14:46:26.052Z,16.01
2023-01-23T14:48:57.207Z,15.96
2023-01-23T14:51:28.799Z,15.94
2023-01-23T14:54:10.221Z,15.95
2023-01-23T14:56:41.532Z,15.82
2023-01-23T14:59:39.086Z,15.86
2023-01-23T15:02:32.520Z,15.91
2023-01-23T15:05:11.470Z,15.87
2023-01-23T15:07:52.122Z,15.85
2023-01-23T15:10:30.051Z,15.74
2023-01-23T15:13:03.506Z,15.71
2023-01-23T15:15:35.965Z,15.64
2023-01-23T15:18:20.755Z,15.63
2023-01-23T15:21:25.907Z,15.65
2023-01-23T15:24:13.267Z,15.67
2023-01-23T15:26:45.151Z,15.47
2023-01-23T15:29:14.258Z,15.43
2023-01-23T15:31:46.777Z,15.45
2023-01-23T15:34:15.395Z,15.60
2023-01-23T15:37:19.880Z,15.52
2023-01-23T15:39:55.784Z,15.44
2023-01-23T15:42:30.092Z,15.39
2023-01-23T15:45:02.043Z,15.21
2023-01-23T15:47:33.084Z,15.21
2023-01-23T15:50:04.981Z,15.19
2023-01-23T18:19:28.885Z,13.64
2023-01-23T18:21:59.372Z,13.66
2023-01-23T18:24:33.442Z,13.61
2023-01-23T18:27:12.896Z,13.64
2023-01-23T18:30:03.541Z,13.66
2023-01-23T18:33:14.281Z,13.74
2023-01-23T18:36:22.789Z,13.77
2023-01-23T18:39:27.817Z,13.73
2023-01-23T18:42:12.295Z,13.78
2023-01-23T18:44:49.705Z,13.76
2023-01-23T18:47:19.085Z,13.62
2023-01-23T18:49:48.337Z,13.55
2023-01-23T18:52:24.476Z,13.72
2023-01-23T18:54:56.737Z,13.72
2023-01-23T18:57:52.567Z,13.79
2023-01-23T19:00:36.709Z,13.80
2023-01-23T19:03:18.178Z,13.88
2023-01-23T19:05:47.944Z,13.71
2023-01-23T19:08:31.711Z,13.82
2023-01-23T19:11:26.034Z,13.91
2023-01-23T19:13:55.261Z,13.70
2023-01-23T19:16:34.193Z,13.76
2023-01-23T19:19:23.976Z,13.80
2023-01-23T19:21:53.295Z,13.40
2023-01-23T19:24:22.531Z,13.31
2023-01-23T19:26:52.512Z,13.34
2023-01-23T19:29:23.984Z,13.45
2023-01-23T19:32:09.205Z,13.41
2023-01-23T19:34:38.361Z,13.35
2023-01-23T19:37:08.875Z,13.35
2023-01-23T19:39:38.852Z,12.83
2023-01-23T19:42:13.739Z,13.01
2023-01-23T19:44:42.573Z,13.17
2023-01-23T19:47:11.731Z,13.06
2023-01-23T19:49:41.429Z,12.83
2023-01-23T19:52:15.383Z,13.08
2023-01-23T19:54:44.384Z,13.04
2023-01-23T19:57:15.809Z,12.99
2023-01-23T19:59:44.657Z,12.93
2023-01-23T20:02:20.941Z,13.18
2023-01-23T20:04:49.883Z,13.14
2023-01-23T20:07:18.899Z,13.13
2023-01-23T20:09:47.743Z,13.12
2023-01-23T20:12:16.640Z,13.06
2023-01-23T20:14:45.728Z,13.04
2023-01-23T20:17:14.771Z,13.09
2023-01-23T20:19:43.829Z,13.13
2023-01-23T20:22:12.635Z,13.10
2023-01-23T20:24:41.790Z,13.14
2023-01-23T20:27:10.587Z,13.13
2023-01-23T20:29:39.685Z,13.12
2023-01-23T20:32:08.882Z,13.10
2023-01-23T20:34:37.751Z,13.10
2023-01-23T20:37:06.704Z,13.13
2023-01-23T20:39:35.392Z,12.91
2023-01-23T20:42:04.545Z,12.96
2023-01-23T20:44:33.528Z,13.10
2023-01-23T20:47:02.499Z,13.00
2023-01-23T20:49:31.498Z,12.97
2023-01-23T20:52:20.454Z,12.94
2023-01-23T20:54:49.459Z,13.06
2023-01-23T20:57:18.435Z,13.09
2023-01-23T20:59:48.764Z,12.97
2023-01-23T21:02:27.996Z,13.04
2023-01-23T21:04:57.128Z,13.05
2023-01-23T21:07:27.092Z,13.05
2023-01-23T21:09:55.946Z,12.90
2023-01-23T21:12:24.790Z,12.97
2023-01-23T21:14:53.757Z,12.92
2023-01-23T21:17:22.721Z,12.82
2023-01-23T21:19:51.810Z,12.91
2023-01-23T21:22:20.675Z,12.81
2023-01-23T21:24:50.195Z,12.89
2023-01-23T21:27:21.107Z,12.93
2023-01-23T21:29:50.893Z,12.98
2023-01-23T21:32:19.575Z,12.94
2023-01-23T21:34:48.739Z,12.95
2023-01-23T21:37:19.338Z,12.98
2023-01-23T21:39:48.448Z,12.96
2023-01-23T21:42:17.232Z,12.86
2023-01-23T21:44:46.063Z,12.66
2023-01-23T21:47:14.915Z,12.77
2023-01-23T21:49:43.764Z,12.80
2023-01-23T21:52:12.643Z,12.82
2023-01-23T21:54:43.629Z,12.86
2023-01-23T21:57:12.636Z,12.81
2023-01-23T21:59:41.516Z,12.78
2023-01-23T22:02:10.399Z,12.71
2023-01-23T22:04:39.657Z,12.71
2023-01-23T22:07:08.479Z,12.76
2023-01-23T22:09:37.269Z,12.60
2023-01-23T22:12:06.453Z,12.68
2023-01-23T22:14:35.343Z,12.75
2023-01-23T22:17:04.047Z,12.61
2023-01-23T22:19:33.196Z,12.63
2023-01-23T22:22:01.811Z,12.66
2023-01-23T22:24:31.555Z,12.65
2023-01-23T22:27:00.870Z,12.62
2023-01-23T22:29:29.774Z,12.77
2023-01-23T22:31:58.994Z,12.75
2023-01-23T22:34:28.296Z,12.72
2023-01-23T22:36:57.200Z,12.76
2023-01-23T22:39:26.222Z,12.74
2023-01-23T22:41:55.344Z,12.72
2023-01-23T22:44:24.244Z,12.73
2023-01-23T22:46:53.012Z,12.67
2023-01-23T22:49:22.777Z,12.66
2023-01-23T22:51:52.404Z,12.60
2023-01-23T22:54:21.363Z,12.52
2023-01-23T22:56:50.336Z,12.36
2023-01-23T22:59:19.545Z,12.51
2023-01-23T23:01:48.305Z,12.53
2023-01-23T23:04:17.322Z,12.50
2023-01-23T23:06:46.235Z,12.56
2023-01-23T23:09:15.389Z,12.32
2023-01-23T23:11:45.138Z,12.18
2023-01-23T23:14:14.283Z,12.46
2023-01-23T23:16:43.267Z,12.36
2023-01-23T23:19:12.715Z,12.43
2023-01-23T23:21:41.851Z,12.28
2023-01-23T23:24:14.699Z,12.59
2023-01-23T23:26:43.695Z,12.48
2023-01-23T23:29:12.682Z,12.37
2023-01-23T23:31:42.038Z,12.51
2023-01-23T23:34:10.897Z,12.52
2023-01-23T23:36:39.886Z,12.45
2023-01-23T23:39:08.783Z,12.39
2023-01-23T23:41:37.641Z,12.49
2023-01-23T23:44:06.794Z,12.40
2023-01-23T23:46:35.655Z,12.43
2023-01-23T23:49:04.567Z,12.43
2023-01-23T23:51:33.670Z,12.11
2023-01-23T23:54:02.386Z,12.37
2023-01-23T23:56:33.204Z,12.32
2023-01-23T23:59:02.128Z,12.40
